--- 
---/-
---
---
---
---
---
---
  • CZ +420 603 548 535
  • EN +420 605 554 207

Recepce

  • Pondělí
    ---
  • Úterý
    ---
  • Středa
    ---
  • Čtvrtek
    ---
  • Pátek
    ---
  • Sobota
    11-14
  • Neděle
    ---

Letecký benzín

  • AVGAS
  • NAT-95 (Twintrans)

Briefing

METAR LKHB 261900Z 29008KT 05/04 Q1029=

Přílet O/R, request HANDLING

Přílet/Arrival
Přílet/Arrival
Odlet/Departure
Místní letová činnost
Pilot
Ostatní služby/Other services
Fakturační údaje/Invoice data
Odeslat

Předpověď počasí (In-počasí)

Veřejné vnitrostátní letiště / Neveřejné mezinárodní letiště
Public domestic airport / Private international airport
Název ICAOLKHB
StatusVeřejné vnitrostátní letiště / Neveřejné mezinárodní letiště
ProvozVFR den, výsadková činnost
ELEV1519 ft / 463 m
Okruh2500 ft / 760 m AMSL
Frekvence128,905
Volací znakBROD RÁDIO
RWY 11Magnetický směr 111°, rozměr 800x50 m, okruhy pravé
RWY 29Magnetický směr 291°, rozměr 800x50 m, okruhy levé
Provozní doba15 APR-15 OCT SAT, SUN, HOL 0700-1400 jinak O/R
PalivoAVGAS 100 LL, Natural BA-95 MOGAS
OlejTOTAL 100 D, AeroShell Sport PLUS 4
HangárováníNIL
ServisO/R, omezeně
UbytováníNa letišti Havlíčkův Brod, objednat předem
Přistávací poplatky (za přistání a tunu MTOW)100 Kč
Parkovací poplatky na vyhrazených plochách (za noc)100 Kč
Poplatky za použití letiště (za cestujícího)100 Kč
LKHB - pujcovna nebe

Meteo situace (ČHMU)

AKHB-pujcovna nebe